Airfield :
LOGIN :

Register | Disclaimer

   EN    FR    IT 

 










Legend :    VFR   Marginal VFR   IFR   Intensive IFR   Very Intensive IFR
Visi :
Ceiling :
>= 8 km
>= 3000ft
5 to 8 km
1000 to 3000 ft
1500m to 5 km
500 to 1000 ft
800 to 1500m
200 to 500 ft
< 800m
< 200 ft
Symbols :   Thunderstorms  Fog  Heavy snow  Heavy precipitations  Wind > 20 kt
SIGMETs :     Misc.  Thunderstorms  Icing  Turbulence  Mountain Waves  Volcanic Ashes







- Airport Elevation : 1260 ft
- IATA code : LDE
- Download approach charts


LFBT - Tarbes / Ossun

CURRENT METAR :
  • 250400Z AUTO 30005KT 250V340 6000 RA FEW009/// SCT026/// BKN046/// ///CB 10/10 Q1002 TEMPO 24018G35KT SCT025 BKN040 BKN080

EXPIRED METARs :
  • 250330Z AUTO 26007KT 9999 -RA FEW016/// BKN068/// BKN090/// ///TCU 10/09 Q1002 TEMPO 24018G35KT RA SCT025 BKN040 BKN080
  • 250300Z AUTO 26004KT 230V300 9999 -RA FEW046/// OVC066/// ///CB 10/09 Q1001 TEMPO 24018G35KT RA SCT025 BKN040 BKN080
  • 250230Z AUTO 30003KT 9999 SCT076/// BKN092/// OVC110/// ///TCU 10/09 Q1000 TEMPO 24018G35KT RA SCT025 BKN040 BKN080
  • 250200Z AUTO 35003KT 300V060 9999 FEW062 SCT076 OVC100 09/09 Q1000 TEMPO 24018G35KT RA
  • 250130Z AUTO 02003KT 320V110 9999 OVC094 10/09 Q1000 TEMPO 24018G35KT RA
  • 250100Z AUTO 04006KT 360V140 9999 FEW060 BKN088 OVC100 10/09 Q1000 TEMPO 24018G35KT RA

TAF TAF LFBT
Valid from the 25 at 00:00 until the 26 at 00:00 UTC


242300Z 2500/2524 20014KT 9999 SCT040 BKN085
BECMG 2500/2502 VRB04KT
TEMPO 2500/2507 24018G35KT 6000 RA SCT025 BKN040 BKN080
PROB40
TEMPO 2512/2516 24015G30KT 7000 SHRA BKN050TCU
PROB30
TEMPO 2513/2516 24020G40KT 4000 TSRA BKN050CB
BECMG 2516/2518 CAVOK
No reported NOTAMs for that airfield.
2 SIGMETs reported for the Bordeaux FIR (LFBB) :
 
Severe mountain waves
LFBB SIGMET 2 VALID 250300/250700 LFPW
LFBB BORDEAUX FIR/UIR SEV MTW FCST WI N4245 E00230 - N4215 E00230 - N4230 E00045 - N4300 E00100 - N4245 E00230 SFC/FL370 STNR WKN=
Severe turbulence
LFBB SIGMET 1 VALID 250300/250700 LFPW
LFBB BORDEAUX FIR/UIR SEV TURB FCST WI N4630 E00300 - N4315 E00230 - N4330 E00130 - N4630 E00300 SFC/FL080 STNR WKN=



MET'MAP, your aeronautical weather chart ! - Copyright ORBIFLY December 2007 - Disclaimer

ORBIFLY MET'MAP TEAM :

Programming & Development : Alexandra Zaïnal
Concept & Development : Baudouin d'Aumeries
Co-Development & Prog : Marc-Olivier Méhu
Technical & hardware support : Manuel Goepfert

Contact : metmap@orbifly.com




SOURCES & CREDITS :

   NOAA